< < Back
Terminal Aerodrome Forecast


Current Version              Previous Versions:   1  2  3  4  5  6  7  8  9  

Terminal Aerodrome Forecast

867
FTUS42 KILM 301120
TAFFLO
TAF
KFLO 301120Z 3012/0112 18004KT P6SM SCT020
     FM301600 19007KT P6SM VCTS SCT040CB
     FM302300 20005KT P6SM FEW050 BKN250=

Latest METAR

632
SAUS70 KWBC 301200 RRX
MTRFLO
METAR KFLO 301153Z 09004KT 10SM CLR 23/21 A2999 RMK AO2 SLP152 T02330211
10233 20217 51009


USA.gov is the U.S. government's official web portal to all federal, state and local government web resources and services.